Time;durP1;ratioP1;P1;durP2;ratioP2;P2;SDS_P1;SDS_P2;PMS_P1;PMS_P2;Temp;Humidity;BMP_temperature;BMP_pressure;BME280_temperature;BME280_humidity;BME280_pressure;Samples;Min_cycle;Max_cycle;Signal;HPM_P1;HPM_P2
2024/02/23 00:01:14;;;;;;;10.90;8.30;;;;;;;5.91;71.36;98917.17;107319;1257;73021;-39
2024/02/23 00:03:42;;;;;;;13.60;8.60;;;;;;;5.88;71.20;98913.85;107258;1257;67913;-39
2024/02/23 00:06:10;;;;;;;13.50;9.00;;;;;;;5.84;71.25;98905.61;107201;1257;72977;-39
2024/02/23 00:08:37;;;;;;;17.10;8.80;;;;;;;5.79;71.32;98908.48;107266;1257;59616;-39
2024/02/23 00:11:05;;;;;;;14.00;9.30;;;;;;;5.76;71.55;98912.77;107303;1256;60012;-39
2024/02/23 00:13:33;;;;;;;14.60;9.30;;;;;;;5.73;71.54;98909.59;107240;1257;72157;-39
2024/02/23 00:16:01;;;;;;;14.80;8.50;;;;;;;5.72;71.66;98908.33;107210;1260;67912;-39
2024/02/23 00:18:29;;;;;;;11.20;8.40;;;;;;;5.67;71.68;98919.19;107246;1257;72642;-39
2024/02/23 00:20:57;;;;;;;12.30;9.30;;;;;;;5.66;71.65;98913.45;107186;1257;60053;-39
2024/02/23 00:23:24;;;;;;;12.00;8.90;;;;;;;5.61;71.73;98915.33;107243;1258;60045;-39
2024/02/23 00:25:52;;;;;;;12.80;8.70;;;;;;;5.56;71.89;98907.48;107238;1257;73047;-39
2024/02/23 00:28:20;;;;;;;11.70;8.90;;;;;;;5.52;72.09;98907.80;107214;1257;67569;-39
2024/02/23 00:30:47;;;;;;;11.70;8.60;;;;;;;5.49;72.25;98899.95;107236;1260;72708;-39
2024/02/23 00:33:15;;;;;;;14.30;9.00;;;;;;;5.49;72.30;98901.64;107205;1257;60910;-39
2024/02/23 00:35:43;;;;;;;13.30;8.90;;;;;;;5.48;72.23;98899.23;106446;1256;1002724;-39
2024/02/23 00:38:11;;;;;;;12.70;8.70;;;;;;;5.47;72.32;98903.34;107188;1257;71801;-39
2024/02/23 00:40:38;;;;;;;11.70;8.10;;;;;;;5.45;72.35;98900.23;107257;1258;67634;-39
2024/02/23 00:43:06;;;;;;;12.20;8.80;;;;;;;5.42;72.53;98903.25;107207;1260;71909;-39
2024/02/23 00:45:33;;;;;;;13.20;9.00;;;;;;;5.37;72.64;98903.09;107227;1257;59590;-39
2024/02/23 00:48:01;;;;;;;12.40;9.30;;;;;;;5.32;72.93;98904.58;107211;1257;60185;-39
2024/02/23 00:50:28;;;;;;;14.10;9.10;;;;;;;5.30;73.11;98898.65;107272;1257;73027;-39
2024/02/23 00:52:56;;;;;;;12.60;8.90;;;;;;;5.30;73.17;98905.02;107251;1257;67551;-39
2024/02/23 00:55:26;;;;;;;13.30;9.40;;;;;;;5.29;73.32;98899.84;107240;1257;72686;-39
2024/02/23 00:57:54;;;;;;;13.10;9.00;;;;;;;5.28;73.36;98897.14;107215;1258;62043;-39
2024/02/23 01:00:21;;;;;;;13.80;10.00;;;;;;;5.27;73.45;98895.48;107282;1258;59801;-39
2024/02/23 01:02:49;;;;;;;12.60;9.50;;;;;;;5.24;73.86;98894.23;107225;1256;73167;-39
2024/02/23 01:05:17;;;;;;;17.30;9.70;;;;;;;5.22;73.76;98894.17;107267;1257;68112;-39
2024/02/23 01:07:45;;;;;;;14.00;9.50;;;;;;;5.21;73.88;98892.94;107256;1257;72733;-39
2024/02/23 01:10:12;;;;;;;12.80;9.30;;;;;;;5.24;74.00;98888.79;107193;1257;59605;-39
2024/02/23 01:12:40;;;;;;;13.70;9.30;;;;;;;5.26;74.14;98889.09;107255;1255;59611;-39
2024/02/23 01:15:08;;;;;;;13.60;9.30;;;;;;;5.28;74.11;98886.38;107197;1260;72843;-39
2024/02/23 01:17:36;;;;;;;13.60;9.00;;;;;;;5.27;74.01;98885.36;107234;1256;67884;-39
2024/02/23 01:20:04;;;;;;;13.30;9.00;;;;;;;5.24;74.24;98884.02;107233;1256;72699;-39
2024/02/23 01:22:32;;;;;;;14.70;10.20;;;;;;;5.20;74.33;98883.91;106532;1257;1002970;-39
2024/02/23 01:24:59;;;;;;;14.20;10.30;;;;;;;5.17;74.59;98882.35;107314;1257;59283;-39
2024/02/23 01:27:27;;;;;;;12.60;9.40;;;;;;;5.16;74.62;98885.55;107265;1257;71027;-39
2024/02/23 01:29:54;;;;;;;14.50;10.30;;;;;;;5.16;74.70;98886.85;107255;1257;67889;-39
2024/02/23 01:32:22;;;;;;;14.10;10.10;;;;;;;5.15;74.83;98886.98;107257;1258;72726;-39
2024/02/23 01:34:50;;;;;;;15.60;9.50;;;;;;;5.16;74.81;98883.16;107292;1257;61260;-39
2024/02/23 01:37:17;;;;;;;15.80;10.10;;;;;;;5.16;75.02;98885.84;107228;1257;59645;-39
2024/02/23 01:39:47;;;;;;;12.70;9.20;;;;;;;5.14;74.98;98882.33;107203;1257;71847;-39
2024/02/23 01:42:14;;;;;;;16.20;10.10;;;;;;;5.14;75.03;98884.77;107267;1256;67717;-39
2024/02/23 01:44:42;;;;;;;16.20;10.70;;;;;;;5.14;75.05;98880.01;106487;1258;1003227;-39
2024/02/23 01:47:09;;;;;;;13.60;10.00;;;;;;;5.14;75.01;98883.92;106433;1257;1003727;-39
2024/02/23 01:49:37;;;;;;;15.40;9.60;;;;;;;5.14;75.15;98882.00;107067;1256;59728;-39
2024/02/23 01:52:04;;;;;;;13.10;9.50;;;;;;;5.13;75.09;98879.77;107193;1260;71814;-39
2024/02/23 01:54:32;;;;;;;12.90;9.30;;;;;;;5.14;75.06;98881.71;107220;1256;66671;-39
2024/02/23 01:56:59;;;;;;;13.30;9.90;;;;;;;5.15;75.14;98883.76;107031;1257;72764;-39
2024/02/23 01:59:47;;;;;;;13.10;9.60;;;;;;;5.17;75.13;98878.30;107169;1257;60049;-39
2024/02/23 02:02:14;;;;;;;13.30;9.50;;;;;;;5.16;74.97;98878.73;107078;1256;59513;-39
2024/02/23 02:04:42;;;;;;;14.20;10.20;;;;;;;5.08;75.13;98866.69;107237;1256;73012;-39
2024/02/23 02:07:10;;;;;;;14.70;10.10;;;;;;;5.11;75.19;98878.77;107212;1258;67600;-39
2024/02/23 02:09:37;;;;;;;13.60;9.40;;;;;;;5.12;75.25;98875.36;107179;1257;72629;-39
2024/02/23 02:12:05;;;;;;;14.00;9.10;;;;;;;5.12;75.17;98870.15;107210;1257;60964;-39
2024/02/23 02:14:33;;;;;;;16.40;9.00;;;;;;;5.12;75.22;98867.84;107205;1260;60039;-39
2024/02/23 02:17:01;;;;;;;13.50;8.90;;;;;;;5.12;75.20;98867.52;107187;1256;73066;-39
2024/02/23 02:19:28;;;;;;;12.90;8.20;;;;;;;5.12;75.19;98872.20;107275;1257;67784;-39
2024/02/23 02:21:56;;;;;;;12.50;8.80;;;;;;;5.08;75.24;98869.76;107145;1257;72773;-39
2024/02/23 02:24:24;;;;;;;12.90;9.50;;;;;;;5.03;75.41;98870.52;107248;1256;59833;-39
2024/02/23 02:26:51;;;;;;;12.30;8.80;;;;;;;4.98;75.56;98872.52;107191;1256;59538;-39
2024/02/23 02:29:19;;;;;;;12.00;8.60;;;;;;;4.98;75.60;98869.29;107237;1256;71751;-40
2024/02/23 02:31:47;;;;;;;14.20;8.50;;;;;;;4.97;75.59;98871.50;107251;1257;66318;-39
2024/02/23 02:34:14;;;;;;;14.00;8.60;;;;;;;4.98;75.76;98871.13;107217;1256;72695;-39
2024/02/23 02:36:42;;;;;;;12.40;8.00;;;;;;;4.99;75.81;98872.15;107197;1257;59733;-39
2024/02/23 02:39:10;;;;;;;13.10;8.90;;;;;;;5.01;75.76;98882.26;107220;1260;59507;-39
2024/02/23 02:41:38;;;;;;;13.60;9.40;;;;;;;4.99;75.84;98881.61;107268;1257;73038;-39
2024/02/23 02:44:06;;;;;;;13.60;8.60;;;;;;;4.94;76.02;98874.76;107226;1256;67571;-39
2024/02/23 02:46:33;;;;;;;11.40;8.80;;;;;;;4.89;76.19;98868.92;107224;1258;71866;-39
2024/02/23 02:49:01;;;;;;;13.80;9.30;;;;;;;4.88;76.37;98875.34;107204;1258;59721;-39
2024/02/23 02:51:29;;;;;;;14.00;8.90;;;;;;;4.87;76.67;98879.27;107207;1257;60008;-39
2024/02/23 02:53:57;;;;;;;14.70;8.60;;;;;;;4.87;76.74;98879.20;107248;1255;73050;-39
2024/02/23 02:56:24;;;;;;;13.30;9.20;;;;;;;4.86;77.01;98876.02;107217;1256;66451;-39
2024/02/23 02:58:52;;;;;;;12.80;8.80;;;;;;;4.86;77.00;98874.02;107209;1256;72716;-39
2024/02/23 03:01:19;;;;;;;12.90;9.20;;;;;;;4.87;77.30;98877.58;107173;1257;61697;-39
2024/02/23 03:03:47;;;;;;;15.60;10.00;;;;;;;4.87;77.31;98876.04;107232;1256;60389;-40
2024/02/23 03:06:15;;;;;;;14.10;9.90;;;;;;;4.82;77.47;98881.27;107219;1260;73844;-39
2024/02/23 03:08:42;;;;;;;16.90;11.00;;;;;;;4.80;77.77;98876.20;107207;1256;67564;-40
2024/02/23 03:11:10;;;;;;;14.10;9.90;;;;;;;4.82;77.79;98873.50;107198;1258;72753;-40
2024/02/23 03:13:38;;;;;;;14.50;9.90;;;;;;;4.84;77.65;98868.14;107246;1257;60327;-40
2024/02/23 03:16:05;;;;;;;14.40;9.50;;;;;;;4.85;77.78;98866.54;107223;1256;60445;-40
2024/02/23 03:18:33;;;;;;;12.30;9.40;;;;;;;4.85;77.87;98864.08;106488;1257;1003039;-40
2024/02/23 03:21:00;;;;;;;12.10;8.90;;;;;;;4.87;77.88;98865.54;107225;1256;66316;-40
2024/02/23 03:23:28;;;;;;;15.70;9.80;;;;;;;4.87;77.86;98868.33;107268;1258;72664;-40
2024/02/23 03:25:56;;;;;;;14.40;10.50;;;;;;;4.85;78.08;98860.26;107197;1258;60438;-40
2024/02/23 03:28:23;;;;;;;13.70;9.80;;;;;;;4.83;78.29;98858.80;107222;1257;60326;-40
2024/02/23 03:30:51;;;;;;;13.90;9.40;;;;;;;4.82;78.33;98857.48;107242;1257;72607;-40
2024/02/23 03:33:18;;;;;;;13.40;9.70;;;;;;;4.84;78.26;98853.02;107185;1256;66473;-40
2024/02/23 03:35:46;;;;;;;14.60;9.90;;;;;;;4.84;78.46;98852.02;107183;1256;72725;-40
2024/02/23 03:38:13;;;;;;;13.40;9.70;;;;;;;4.85;78.40;98854.41;107209;1256;61032;-40
2024/02/23 03:40:42;;;;;;;12.70;9.60;;;;;;;4.85;78.40;98847.67;106484;1257;1003710;-40
2024/02/23 03:43:09;;;;;;;12.90;9.30;;;;;;;4.86;78.51;98853.00;107202;1256;74559;-40
2024/02/23 03:45:37;;;;;;;15.40;10.10;;;;;;;4.88;78.26;98852.30;107202;1257;66601;-40
2024/02/23 03:48:05;;;;;;;14.20;10.40;;;;;;;4.90;78.39;98847.90;107225;1256;72745;-40
2024/02/23 03:50:32;;;;;;;14.30;10.30;;;;;;;4.92;78.17;98852.02;107247;1257;60427;-39
2024/02/23 03:53:00;;;;;;;14.00;10.70;;;;;;;4.90;78.36;98852.20;107217;1256;60530;-40
2024/02/23 03:55:27;;;;;;;15.10;10.40;;;;;;;4.87;78.28;98852.44;107215;1256;73840;-40
2024/02/23 03:57:55;;;;;;;15.60;11.00;;;;;;;4.87;78.40;98848.04;107252;1257;67589;-40
2024/02/23 04:00:23;;;;;;;13.20;9.60;;;;;;;4.85;78.32;98853.04;107197;1256;72783;-40
2024/02/23 04:02:50;;;;;;;14.50;9.80;;;;;;;4.85;78.39;98852.50;107182;1256;61016;-40
2024/02/23 04:05:19;;;;;;;15.20;10.20;;;;;;;4.85;78.59;98855.48;107226;1256;60436;-40
2024/02/23 04:07:46;;;;;;;12.50;9.20;;;;;;;4.84;78.76;98853.17;107213;1256;73832;-40
2024/02/23 04:10:16;;;;;;;14.40;9.90;;;;;;;4.84;78.84;98850.55;107210;1256;67593;-40
2024/02/23 04:12:43;;;;;;;14.30;10.20;;;;;;;4.85;78.70;98852.10;107253;1257;72680;-40
2024/02/23 04:15:11;;;;;;;12.80;9.00;;;;;;;4.85;78.83;98848.66;107192;1256;60316;-40
2024/02/23 04:17:39;;;;;;;12.40;9.70;;;;;;;4.84;78.80;98840.34;107255;1255;60029;-39
2024/02/23 04:20:07;;;;;;;14.10;10.10;;;;;;;4.80;79.02;98841.06;107218;1256;73861;-39
2024/02/23 04:22:36;;;;;;;11.40;9.40;;;;;;;4.80;78.80;98842.30;107263;1257;67624;-39
2024/02/23 04:25:04;;;;;;;14.80;9.40;;;;;;;4.83;78.84;98841.55;107220;1257;72704;-39
2024/02/23 04:27:32;;;;;;;12.60;9.30;;;;;;;4.84;78.71;98845.42;107283;1256;60872;-39
2024/02/23 04:30:00;;;;;;;14.40;9.50;;;;;;;4.85;78.70;98845.08;107228;1260;59328;-39
2024/02/23 04:32:27;;;;;;;15.40;9.60;;;;;;;4.87;78.70;98842.67;107235;1256;72680;-39
2024/02/23 04:34:55;;;;;;;12.60;9.40;;;;;;;4.88;78.75;98845.09;107242;1256;67650;-39
2024/02/23 04:37:23;;;;;;;12.90;9.40;;;;;;;4.89;78.48;98845.89;107223;1256;72662;-39
2024/02/23 04:39:50;;;;;;;13.40;9.20;;;;;;;4.88;78.57;98845.77;107204;1257;59624;-39
2024/02/23 04:42:18;;;;;;;12.70;9.80;;;;;;;4.85;78.73;98849.83;107220;1256;60507;-39
2024/02/23 04:44:45;;;;;;;11.70;9.40;;;;;;;4.84;78.74;98853.71;107237;1256;73879;-39
2024/02/23 04:47:13;;;;;;;11.30;9.10;;;;;;;4.84;78.68;98854.48;107222;1255;67560;-39
2024/02/23 04:49:41;;;;;;;13.70;8.80;;;;;;;4.85;78.83;98858.70;107210;1256;72715;-39
2024/02/23 04:52:08;;;;;;;14.70;9.10;;;;;;;4.86;78.80;98857.36;107214;1257;60546;-39
2024/02/23 04:54:36;;;;;;;12.80;8.90;;;;;;;4.86;78.76;98861.66;107230;1256;60313;-39
2024/02/23 04:57:04;;;;;;;10.40;8.30;;;;;;;4.86;78.72;98861.98;107270;1256;73845;-39
2024/02/23 04:59:32;;;;;;;12.60;8.60;;;;;;;4.87;78.77;98868.52;107291;1256;67563;-39
2024/02/23 05:02:00;;;;;;;14.10;9.30;;;;;;;4.85;78.75;98869.02;107240;1256;72991;-39
2024/02/23 05:04:28;;;;;;;12.80;9.50;;;;;;;4.82;78.81;98877.52;107228;1256;60374;-39
2024/02/23 05:06:55;;;;;;;12.20;8.70;;;;;;;4.81;78.82;98882.21;107200;1256;59260;-39
2024/02/23 05:09:23;;;;;;;11.30;8.70;;;;;;;4.82;78.95;98875.89;107248;1256;73954;-39
2024/02/23 05:11:51;;;;;;;11.50;9.80;;;;;;;4.84;79.01;98874.49;107192;1256;67555;-39
2024/02/23 05:14:19;;;;;;;14.40;8.90;;;;;;;4.85;78.89;98878.20;107187;1256;72790;-39
2024/02/23 05:16:46;;;;;;;14.10;9.30;;;;;;;4.87;78.99;98885.95;107197;1260;61653;-39
2024/02/23 05:19:14;;;;;;;13.50;9.00;;;;;;;4.90;78.79;98886.27;107246;1256;60546;-39
2024/02/23 05:21:41;;;;;;;13.20;9.10;;;;;;;4.91;78.81;98891.36;107214;1256;73859;-40
2024/02/23 05:24:11;;;;;;;13.80;9.40;;;;;;;4.87;78.87;98903.92;107260;1256;66618;-39
2024/02/23 05:26:38;;;;;;;14.50;9.70;;;;;;;4.84;78.97;98907.29;107249;1256;72728;-39
2024/02/23 05:29:06;;;;;;;12.70;8.60;;;;;;;4.83;79.03;98903.41;107244;1256;60408;-39
2024/02/23 05:31:45;;;;;;;12.50;9.10;;;;;;;4.84;79.19;98902.98;107277;1256;60550;-39
2024/02/23 05:34:13;;;;;;;13.80;9.30;;;;;;;4.86;79.04;98906.78;107245;1257;72563;-39
2024/02/23 05:36:40;;;;;;;19.80;13.80;;;;;;;4.87;79.19;98907.31;107222;1257;68142;-39
2024/02/23 05:39:09;;;;;;;24.60;15.80;;;;;;;4.91;79.19;98909.33;107165;1257;72723;-39
2024/02/23 05:41:37;;;;;;;15.70;11.10;;;;;;;4.93;78.99;98908.04;107182;1258;61687;-39
2024/02/23 05:44:06;;;;;;;12.90;10.00;;;;;;;4.94;78.93;98917.27;107176;1258;59482;-39
2024/02/23 05:46:36;;;;;;;20.30;13.70;;;;;;;4.92;79.02;98919.64;107147;1258;73957;-39
2024/02/23 05:49:04;;;;;;;15.50;11.50;;;;;;;4.90;79.06;98924.88;107133;1257;67581;-39
2024/02/23 05:51:32;;;;;;;13.00;10.30;;;;;;;4.89;79.03;98924.54;107141;1257;72689;-39
2024/02/23 05:53:59;;;;;;;15.30;11.10;;;;;;;4.89;79.16;98927.16;107202;1258;60550;-39
2024/02/23 05:56:27;;;;;;;12.60;10.10;;;;;;;4.90;79.07;98927.79;107158;1257;59996;-39
2024/02/23 05:58:55;;;;;;;13.30;10.30;;;;;;;4.91;79.29;98927.36;107191;1257;73879;-39
2024/02/23 06:01:23;;;;;;;14.10;10.40;;;;;;;4.92;79.20;98917.98;107124;1257;68050;-39
2024/02/23 06:03:50;;;;;;;14.80;11.00;;;;;;;4.92;79.11;98920.98;107165;1258;72676;-39
2024/02/23 06:06:18;;;;;;;14.20;10.20;;;;;;;4.93;79.11;98925.67;107184;1257;60411;-39
2024/02/23 06:08:46;;;;;;;14.90;10.90;;;;;;;4.94;79.14;98929.94;107201;1257;60049;-39
2024/02/23 06:11:13;;;;;;;14.20;10.80;;;;;;;4.95;79.14;98935.88;107136;1257;73830;-40
2024/02/23 06:13:41;;;;;;;12.70;10.20;;;;;;;4.97;79.22;98937.10;107188;1257;67614;-39
2024/02/23 06:16:12;;;;;;;15.50;12.20;;;;;;;5.01;79.12;98938.39;107152;1257;72699;-39
2024/02/23 06:18:42;;;;;;;14.80;10.40;;;;;;;5.04;79.16;98945.09;107171;1258;60352;-39
2024/02/23 06:21:17;;;;;;;17.10;12.10;;;;;;;5.04;79.14;98945.33;107139;1257;60422;-39
2024/02/23 06:23:45;;;;;;;15.20;10.70;;;;;;;4.99;79.12;98945.52;107165;1256;73794;-39
2024/02/23 06:26:12;;;;;;;24.50;16.10;;;;;;;5.05;79.00;98953.34;107205;1258;66316;-39
2024/02/23 06:28:43;;;;;;;13.60;10.20;;;;;;;5.06;78.98;98946.48;107196;1257;72664;-39
2024/02/23 06:31:11;;;;;;;12.70;10.40;;;;;;;5.08;78.93;98940.40;107173;1262;60861;-39
2024/02/23 06:33:40;;;;;;;12.80;10.30;;;;;;;5.13;79.02;98942.40;107126;1258;59586;-39
2024/02/23 06:36:07;;;;;;;15.00;10.10;;;;;;;5.15;78.79;98938.38;107161;1258;74012;-39
2024/02/23 06:38:35;;;;;;;14.70;10.40;;;;;;;5.18;78.67;98933.96;107241;1261;66670;-39
2024/02/23 06:41:03;;;;;;;16.40;10.90;;;;;;;5.20;78.65;98939.49;107139;1257;71831;-39
2024/02/23 06:43:31;;;;;;;14.80;10.90;;;;;;;5.23;78.59;98938.95;107105;1261;63932;-39
2024/02/23 06:45:58;;;;;;;14.50;10.40;;;;;;;5.27;78.56;98939.55;107171;1258;60296;-39
2024/02/23 06:48:26;;;;;;;13.40;10.30;;;;;;;5.31;78.29;98944.38;107140;1257;72757;-39
2024/02/23 06:50:57;;;;;;;16.80;11.50;;;;;;;5.34;78.17;98953.67;107123;1258;66594;-39
2024/02/23 06:53:25;;;;;;;13.40;10.20;;;;;;;5.37;78.10;98959.92;107156;1262;71410;-39
2024/02/23 06:55:53;;;;;;;12.90;10.10;;;;;;;5.38;77.93;98961.04;107153;1257;61745;-39
2024/02/23 06:58:21;;;;;;;16.70;11.20;;;;;;;5.38;77.91;98963.10;107149;1259;60562;-39
2024/02/23 07:00:49;;;;;;;15.10;10.20;;;;;;;5.36;77.84;98958.06;107198;1259;74436;-39
2024/02/23 07:03:16;;;;;;;14.70;10.80;;;;;;;5.35;77.93;98962.19;107163;1257;66819;-39
2024/02/23 07:05:45;;;;;;;13.80;10.20;;;;;;;5.36;77.95;98961.91;107178;1259;71484;-39
2024/02/23 07:08:13;;;;;;;13.40;9.90;;;;;;;5.40;77.82;98967.70;107070;1258;62056;-39
2024/02/23 07:10:41;;;;;;;15.60;10.60;;;;;;;5.40;77.72;98967.02;107141;1258;60297;-39
2024/02/23 07:13:09;;;;;;;12.80;10.70;;;;;;;5.38;77.72;98961.59;107204;1257;72985;-39
2024/02/23 07:15:37;;;;;;;16.00;11.00;;;;;;;5.36;77.82;98963.77;107092;1257;67757;-39
2024/02/23 07:18:05;;;;;;;14.70;10.10;;;;;;;5.36;77.81;98962.37;107162;1257;72906;-39
2024/02/23 07:20:33;;;;;;;15.20;10.60;;;;;;;5.38;77.86;98969.58;107192;1258;60859;-40
2024/02/23 07:23:01;;;;;;;15.00;10.70;;;;;;;5.39;77.66;98971.97;107170;1257;60626;-39
2024/02/23 07:25:28;;;;;;;14.30;10.90;;;;;;;5.39;77.76;98978.90;107213;1257;72698;-39
2024/02/23 07:27:56;;;;;;;14.20;10.20;;;;;;;5.39;77.69;98980.04;107233;1257;67596;-39
2024/02/23 07:30:23;;;;;;;16.10;11.50;;;;;;;5.39;77.66;98973.83;107158;1260;72710;-39
2024/02/23 07:32:51;;;;;;;15.10;10.80;;;;;;;5.41;77.48;98978.59;107160;1257;61889;-39
2024/02/23 07:35:20;;;;;;;12.50;10.10;;;;;;;5.43;77.51;98972.42;107221;1257;60301;-39
2024/02/23 07:37:48;;;;;;;16.20;10.70;;;;;;;5.46;77.48;98973.60;107215;1257;73060;-39
2024/02/23 07:40:15;;;;;;;17.00;11.00;;;;;;;5.49;77.52;98972.38;107251;1257;66429;-39
2024/02/23 07:42:47;;;;;;;13.80;11.30;;;;;;;5.51;77.49;98975.22;107236;1257;74317;-39
2024/02/23 07:45:15;;;;;;;16.20;10.90;;;;;;;5.51;77.61;98975.98;107168;1258;61222;-39
2024/02/23 07:47:42;;;;;;;16.00;11.70;;;;;;;5.52;77.39;98982.02;107202;1256;60297;-39
2024/02/23 07:50:12;;;;;;;15.30;10.90;;;;;;;5.56;77.36;98981.55;107209;1260;74151;-40
2024/02/23 07:52:40;;;;;;;15.40;11.00;;;;;;;5.57;77.03;98980.33;107177;1257;67945;-39
2024/02/23 07:55:09;;;;;;;14.00;10.80;;;;;;;5.60;76.92;98979.29;107166;1260;72833;-39
2024/02/23 07:57:38;;;;;;;14.40;11.20;;;;;;;5.63;76.96;98987.84;107177;1258;61791;-39
2024/02/23 08:00:09;;;;;;;15.40;11.80;;;;;;;5.65;76.25;98990.14;107136;1257;62183;-39
2024/02/23 08:02:40;;;;;;;15.00;11.40;;;;;;;5.66;76.34;98988.91;107227;1257;74022;-39
2024/02/23 08:05:08;;;;;;;15.10;11.10;;;;;;;5.67;76.21;98991.41;107162;1257;66569;-39
2024/02/23 08:07:36;;;;;;;17.70;12.30;;;;;;;5.66;76.26;98994.15;107228;1257;71544;-39
2024/02/23 08:10:05;;;;;;;15.40;11.90;;;;;;;5.65;76.21;98997.95;107292;1257;60441;-39
2024/02/23 08:12:32;;;;;;;15.30;11.10;;;;;;;5.66;76.32;99006.98;107249;1258;61027;-39
2024/02/23 08:15:04;;;;;;;14.40;11.30;;;;;;;5.66;76.26;99005.08;107146;1258;72102;-39
2024/02/23 08:17:31;;;;;;;15.10;11.60;;;;;;;5.68;76.32;99007.67;107202;1262;66765;-39
2024/02/23 08:19:59;;;;;;;16.60;12.40;;;;;;;5.71;76.28;99006.84;107122;1259;71124;-39
2024/02/23 08:22:27;;;;;;;17.20;11.90;;;;;;;5.72;76.04;98998.32;107102;1257;60827;-39
2024/02/23 08:24:55;;;;;;;13.70;11.10;;;;;;;5.74;75.91;99002.61;107138;1257;60593;-39
2024/02/23 08:27:23;;;;;;;16.60;11.70;;;;;;;5.75;75.90;99002.95;107209;1259;72041;-39
2024/02/23 08:29:50;;;;;;;16.80;11.70;;;;;;;5.76;75.92;99002.36;107121;1257;68101;-39
2024/02/23 08:32:18;;;;;;;15.50;12.10;;;;;;;5.76;75.99;99008.74;107161;1257;72124;-39
2024/02/23 08:34:46;;;;;;;16.40;12.30;;;;;;;5.77;75.99;99005.99;107150;1257;61009;-39
2024/02/23 08:37:14;;;;;;;17.40;12.10;;;;;;;5.78;76.04;99006.33;107242;1257;60470;-39
2024/02/23 08:39:42;;;;;;;17.80;12.60;;;;;;;5.78;76.03;99009.80;107202;1257;72580;-39
2024/02/23 08:42:09;;;;;;;17.00;12.50;;;;;;;5.80;76.03;99017.27;107143;1258;67849;-39
2024/02/23 08:44:39;;;;;;;16.70;11.90;;;;;;;5.81;75.99;99026.83;107113;1259;71440;-39
2024/02/23 08:47:06;;;;;;;16.90;12.00;;;;;;;5.82;75.90;99022.92;107167;1259;60528;-39
2024/02/23 08:49:34;;;;;;;15.10;11.10;;;;;;;5.85;75.77;99026.19;107217;1257;59466;-39
2024/02/23 08:52:03;;;;;;;15.20;11.40;;;;;;;5.88;75.49;99018.98;107125;1258;75919;-39
2024/02/23 08:54:31;;;;;;;17.20;11.50;;;;;;;5.92;75.58;99018.27;107153;1257;66896;-39
2024/02/23 08:56:59;;;;;;;18.10;11.90;;;;;;;5.95;75.52;99018.85;107159;1262;71874;-39
2024/02/23 08:59:26;;;;;;;21.20;13.20;;;;;;;5.97;75.40;99021.98;107227;1257;60438;-39
2024/02/23 09:01:54;;;;;;;20.00;12.90;;;;;;;6.00;75.28;99018.55;107136;1257;60202;-39
2024/02/23 09:04:22;;;;;;;17.00;12.90;;;;;;;6.03;75.05;99016.85;107147;1258;76120;-39
2024/02/23 09:06:51;;;;;;;16.90;12.90;;;;;;;6.06;74.87;99014.88;107157;1257;69824;-39
2024/02/23 09:09:19;;;;;;;18.20;11.80;;;;;;;6.11;75.00;99014.58;107183;1257;72093;-39
2024/02/23 09:11:46;;;;;;;17.00;11.90;;;;;;;6.18;74.74;99018.77;107130;1257;62041;-39
2024/02/23 09:14:14;;;;;;;20.00;12.90;;;;;;;6.24;74.54;99013.68;107135;1262;60310;-39
2024/02/23 09:16:42;;;;;;;18.00;13.00;;;;;;;6.31;74.35;99020.35;107116;1257;74217;-39
2024/02/23 09:19:10;;;;;;;17.00;12.30;;;;;;;6.37;74.12;99015.77;107271;1258;67958;-39
2024/02/23 09:21:37;;;;;;;17.70;12.40;;;;;;;6.41;73.92;99016.63;107197;1258;71499;-39
2024/02/23 09:24:06;;;;;;;21.80;13.90;;;;;;;6.44;73.81;99022.70;107155;1258;60555;-39
2024/02/23 09:26:33;;;;;;;19.50;12.40;;;;;;;6.45;73.42;99026.44;107305;1257;60371;-39
2024/02/23 09:29:01;;;;;;;15.90;12.60;;;;;;;6.47;73.66;99027.27;107133;1258;74008;-39
2024/02/23 09:31:29;;;;;;;20.20;13.70;;;;;;;6.48;73.63;99030.16;107113;1257;67127;-39
2024/02/23 09:33:57;;;;;;;19.60;13.60;;;;;;;6.49;73.43;99032.04;107129;1258;73267;-39
2024/02/23 09:36:25;;;;;;;17.90;12.50;;;;;;;6.49;73.46;99028.02;107127;1257;62007;-39
2024/02/23 09:38:53;;;;;;;17.10;13.00;;;;;;;6.52;73.79;99034.52;107154;1262;60409;-39
2024/02/23 09:41:22;;;;;;;18.20;13.30;;;;;;;6.56;73.95;99032.30;107212;1257;73989;-39
2024/02/23 09:43:50;;;;;;;17.50;13.10;;;;;;;6.57;73.80;99031.66;107171;1259;66238;-39
2024/02/23 09:46:18;;;;;;;19.60;13.50;;;;;;;6.59;73.76;99035.68;107121;1257;72840;-39
2024/02/23 09:48:48;;;;;;;18.90;14.80;;;;;;;6.60;74.11;99038.52;107145;1256;63221;-39
2024/02/23 09:51:16;;;;;;;;;;;;;;;6.62;74.05;99037.03;107098;1257;60410;-39
2024/02/23 09:53:44;;;;;;;20.70;13.60;;;;;;;6.64;74.16;99031.54;107224;1259;74022;-39
2024/02/23 09:56:12;;;;;;;22.00;14.40;;;;;;;6.67;74.33;99029.25;107127;1259;66744;-39
2024/02/23 09:58:39;;;;;;;19.80;14.00;;;;;;;6.72;74.11;99029.70;107086;1257;70714;-39
2024/02/23 10:01:07;;;;;;;19.10;14.00;;;;;;;6.74;73.68;99026.30;107025;1257;61868;-39
2024/02/23 10:03:35;;;;;;;19.50;13.80;;;;;;;6.76;73.78;99026.50;107101;1259;60258;-39
2024/02/23 10:06:04;;;;;;;19.20;13.30;;;;;;;6.79;73.93;99031.83;107092;1257;72768;-39
2024/02/23 10:08:32;;;;;;;17.60;13.50;;;;;;;6.83;73.75;99028.23;107169;1257;66767;-39
2024/02/23 10:11:00;;;;;;;19.60;14.00;;;;;;;6.85;73.74;99019.83;107079;1258;71493;-39
2024/02/23 10:13:29;;;;;;;19.30;14.10;;;;;;;6.87;73.84;99024.05;107145;1257;61489;-39
2024/02/23 10:15:56;;;;;;;18.80;13.80;;;;;;;6.90;73.75;99023.13;107239;1258;59584;-39
2024/02/23 10:18:41;;;;;;;20.60;14.50;;;;;;;6.93;73.71;99023.35;107123;1262;74017;-40
2024/02/23 10:21:09;;;;;;;23.60;15.60;;;;;;;6.95;73.73;99023.11;106359;1257;1002911;-39
2024/02/23 10:23:36;;;;;;;22.50;15.60;;;;;;;6.97;73.78;99021.02;107089;1259;72814;-39
2024/02/23 10:26:06;;;;;;;21.80;15.70;;;;;;;6.98;73.94;99017.94;107067;1258;60907;-39
2024/02/23 10:28:35;;;;;;;22.10;15.00;;;;;;;6.98;74.25;99018.27;107230;1258;60355;-39
2024/02/23 10:31:03;;;;;;;23.00;15.80;;;;;;;6.98;74.26;99021.05;107090;1258;73205;-39
2024/02/23 10:33:30;;;;;;;23.40;16.60;;;;;;;6.99;74.54;99028.36;107127;1259;66809;-39
2024/02/23 10:35:58;;;;;;;23.40;15.50;;;;;;;6.99;74.66;99024.67;107108;1257;71333;-39
2024/02/23 10:38:26;;;;;;;21.20;15.40;;;;;;;7.02;74.98;99024.29;107035;1257;61435;-39
2024/02/23 10:40:57;;;;;;;22.60;15.70;;;;;;;7.07;74.98;99022.12;107064;1262;60332;-39
2024/02/23 10:43:31;;;;;;;25.00;16.90;;;;;;;7.10;74.90;99016.21;107072;1262;74059;-39
2024/02/23 10:45:59;;;;;;;21.70;15.60;;;;;;;7.15;74.92;99019.34;107084;1257;66742;-39
2024/02/23 10:48:27;;;;;;;23.30;16.70;;;;;;;7.21;74.98;99023.27;107202;1257;71477;-39
2024/02/23 10:50:56;;;;;;;24.90;16.10;;;;;;;7.27;74.63;99025.97;107023;1257;59732;-39
2024/02/23 10:53:24;;;;;;;20.90;15.60;;;;;;;7.29;74.60;99030.27;107101;1260;60477;-39
2024/02/23 10:55:55;;;;;;;23.50;16.30;;;;;;;7.31;74.52;99029.56;107105;1262;73943;-39
2024/02/23 10:58:23;;;;;;;25.40;17.10;;;;;;;7.34;74.41;99030.64;107129;1258;66792;-39
2024/02/23 11:00:51;;;;;;;24.10;16.40;;;;;;;7.40;74.48;99030.55;107091;1259;72638;-39
2024/02/23 11:03:19;;;;;;;22.90;16.30;;;;;;;7.44;74.44;99025.74;107009;1257;60554;-39
2024/02/23 11:05:49;;;;;;;24.60;16.90;;;;;;;7.49;74.46;99029.70;107078;1258;195961;-39
2024/02/23 11:10:00;;;;;;;25.40;17.30;;;;;;;7.60;74.04;99030.23;104337;1292;600291;-39
2024/02/23 11:12:31;;;;;;;25.00;16.90;;;;;;;7.62;73.86;99026.73;106613;1264;59247;-39
2024/02/23 11:14:59;;;;;;;21.70;16.50;;;;;;;7.63;73.97;99024.97;106643;1264;59103;-39
2024/02/23 11:17:29;;;;;;;22.60;16.50;;;;;;;7.65;73.95;99027.11;106672;1264;71217;-39
2024/02/23 11:19:58;;;;;;;24.40;17.50;;;;;;;7.68;73.88;99023.85;106739;1265;65603;-39
2024/02/23 11:22:26;;;;;;;25.70;17.40;;;;;;;7.69;73.82;99015.19;106610;1264;171360;-40
2024/02/23 11:25:09;;;;;;;21.10;16.70;;;;;;;7.73;73.95;99020.06;106832;1263;61808;-39